createdAt,value
2023-05-18T00:00:37.240Z,9.26
2023-05-18T00:02:37.558Z,9.28
2023-05-18T00:04:38.069Z,9.31
2023-05-18T00:06:38.359Z,9.32
2023-05-18T00:08:38.699Z,9.34
2023-05-18T00:10:39.020Z,9.36
2023-05-18T00:12:39.327Z,9.29
2023-05-18T00:14:39.615Z,9.29
2023-05-18T00:16:40.183Z,9.22
2023-05-18T00:18:40.582Z,9.14
2023-05-18T00:20:41.003Z,9.14
2023-05-18T00:22:41.231Z,9.13
2023-05-18T00:24:41.553Z,9.16
2023-05-18T00:26:41.859Z,9.11
2023-05-18T00:28:42.214Z,9.18
2023-05-18T00:30:42.538Z,9.21
2023-05-18T00:32:42.912Z,9.22
2023-05-18T00:34:43.245Z,9.22
2023-05-18T00:36:43.661Z,9.18
2023-05-18T00:38:43.961Z,9.16
2023-05-18T00:40:44.237Z,9.14
2023-05-18T00:42:44.654Z,9.13
2023-05-18T00:44:49.766Z,9.11
2023-05-18T00:46:50.168Z,9.06
2023-05-18T00:48:50.438Z,9.02
2023-05-18T00:50:50.827Z,9.00
2023-05-18T00:52:51.096Z,8.97
2023-05-18T00:54:51.460Z,8.92
2023-05-18T00:56:51.776Z,8.87
2023-05-18T00:58:52.140Z,8.88
2023-05-18T01:00:52.478Z,9.00
2023-05-18T01:02:53.134Z,9.02
2023-05-18T01:04:53.548Z,9.03
2023-05-18T01:06:53.843Z,9.06
2023-05-18T01:08:54.165Z,8.97
2023-05-18T01:10:54.491Z,8.88
2023-05-18T01:12:54.788Z,8.84
2023-05-18T01:14:55.132Z,8.76
2023-05-18T01:16:55.441Z,8.66
2023-05-18T01:18:55.760Z,8.60
2023-05-18T01:20:56.065Z,8.60
2023-05-18T01:22:56.424Z,8.53
2023-05-18T01:24:56.702Z,8.53
2023-05-18T01:26:57.098Z,8.52
2023-05-18T01:28:57.385Z,8.51
2023-05-18T01:30:57.732Z,8.49
2023-05-18T01:32:58.099Z,8.44
2023-05-18T01:34:58.418Z,8.42
2023-05-18T01:36:58.710Z,8.41
2023-05-18T01:38:58.970Z,8.46
2023-05-18T01:40:59.296Z,8.53
2023-05-18T01:42:59.769Z,8.58
2023-05-18T01:45:00.327Z,8.60
2023-05-18T01:47:00.597Z,8.66
2023-05-18T01:49:00.904Z,8.64
2023-05-18T01:51:01.198Z,8.58
2023-05-18T01:53:01.537Z,8.52
2023-05-18T01:55:01.840Z,8.42
2023-05-18T01:57:02.210Z,8.38
2023-05-18T01:59:02.493Z,8.36
2023-05-18T02:01:02.833Z,8.30
2023-05-18T02:03:03.215Z,8.36
2023-05-18T02:05:03.473Z,8.42
2023-05-18T02:07:03.846Z,8.37
2023-05-18T02:09:04.122Z,8.45
2023-05-18T02:11:04.419Z,8.66
2023-05-18T02:13:04.787Z,8.70
2023-05-18T02:15:05.151Z,8.84
2023-05-18T02:17:05.532Z,8.89
2023-05-18T02:19:05.858Z,8.85
2023-05-18T02:21:06.270Z,8.79
2023-05-18T02:23:06.509Z,8.78
2023-05-18T02:25:06.927Z,8.82
2023-05-18T02:27:07.244Z,8.89
2023-05-18T02:29:07.735Z,8.89
2023-05-18T02:31:08.083Z,8.92
2023-05-18T02:33:08.357Z,8.99
2023-05-18T02:35:08.659Z,9.02
2023-05-18T02:37:08.963Z,9.06
2023-05-18T02:39:09.384Z,9.10
2023-05-18T02:41:09.725Z,9.08
2023-05-18T02:43:09.963Z,9.08
2023-05-18T02:45:10.393Z,9.04
2023-05-18T02:47:10.736Z,8.95
2023-05-18T02:49:11.034Z,8.95
2023-05-18T02:51:11.300Z,8.97
2023-05-18T02:53:11.803Z,8.99
2023-05-18T02:55:12.292Z,8.91
2023-05-18T02:57:12.762Z,8.84
2023-05-18T02:59:13.029Z,8.74
2023-05-18T03:01:13.441Z,8.67
2023-05-18T03:03:13.979Z,8.58
2023-05-18T03:05:14.297Z,8.48
2023-05-18T03:07:14.728Z,8.42
2023-05-18T03:09:15.085Z,8.38
2023-05-18T03:11:15.380Z,8.37
2023-05-18T03:13:15.821Z,8.34
2023-05-18T03:15:16.250Z,8.26
2023-05-18T03:17:16.533Z,8.26
2023-05-18T03:19:16.990Z,8.27
2023-05-18T03:21:17.518Z,8.23
2023-05-18T03:23:17.915Z,8.18
2023-05-18T03:25:18.301Z,8.16
2023-05-18T03:27:18.571Z,8.12
2023-05-18T03:29:18.912Z,8.05
2023-05-18T03:31:19.485Z,7.97
2023-05-18T03:33:20.187Z,7.91
2023-05-18T03:35:20.532Z,7.94
2023-05-18T03:37:20.944Z,7.95
2023-05-18T03:39:21.240Z,7.87
2023-05-18T03:41:21.668Z,7.79
2023-05-18T03:43:22.052Z,7.77
2023-05-18T03:45:22.303Z,7.77
2023-05-18T03:47:22.605Z,7.75
2023-05-18T03:49:23.008Z,7.69
2023-05-18T03:51:23.247Z,7.60
2023-05-18T03:53:23.590Z,7.48
2023-05-18T03:55:23.890Z,7.36
2023-05-18T03:57:24.380Z,7.31
2023-05-18T03:59:24.789Z,7.25
2023-05-18T04:01:25.126Z,7.18
2023-05-18T04:03:25.470Z,7.17
2023-05-18T04:05:25.874Z,7.11
2023-05-18T04:07:26.211Z,7.07
2023-05-18T04:09:26.526Z,7.07
2023-05-18T04:11:26.804Z,7.05
2023-05-18T04:13:27.281Z,7.18
2023-05-18T04:15:27.574Z,7.17
2023-05-18T04:17:28.004Z,7.17
2023-05-18T04:19:28.443Z,7.20
2023-05-18T04:21:29.047Z,7.23
2023-05-18T04:23:29.302Z,7.29
2023-05-18T04:25:29.795Z,7.35
2023-05-18T04:27:30.148Z,7.31
2023-05-18T04:29:30.767Z,7.43
2023-05-18T04:31:31.115Z,7.56
2023-05-18T04:33:31.416Z,7.77
2023-05-18T04:35:32.063Z,7.80
2023-05-18T04:37:32.567Z,7.76
2023-05-18T04:39:32.882Z,7.73
2023-05-18T04:41:33.221Z,7.73
2023-05-18T04:43:33.504Z,7.73
2023-05-18T04:45:34.060Z,7.76
2023-05-18T04:47:34.484Z,7.87
2023-05-18T04:49:34.791Z,7.93
2023-05-18T04:51:35.066Z,7.98
2023-05-18T04:53:35.455Z,8.05
2023-05-18T04:55:35.742Z,8.18
2023-05-18T04:57:36.075Z,8.24
2023-05-18T04:59:36.375Z,8.37
2023-05-18T05:01:36.731Z,8.42
2023-05-18T05:03:37.074Z,8.53
2023-05-18T05:05:37.547Z,8.71
2023-05-18T05:07:37.869Z,8.85
2023-05-18T05:09:38.287Z,8.99
2023-05-18T05:11:38.658Z,9.14
2023-05-18T05:13:38.973Z,9.22
2023-05-18T05:15:39.276Z,9.32
2023-05-18T05:17:39.719Z,9.46
2023-05-18T05:19:40.038Z,9.59
2023-05-18T05:21:40.347Z,9.68
2023-05-18T05:23:40.654Z,9.80
2023-05-18T05:25:41.001Z,9.89
2023-05-18T05:27:41.280Z,9.99
2023-05-18T05:29:41.570Z,10.12
2023-05-18T05:31:41.906Z,10.19
2023-05-18T05:33:42.189Z,10.25
2023-05-18T05:35:42.496Z,10.35
2023-05-18T05:37:42.913Z,10.48
2023-05-18T05:39:43.209Z,10.57
2023-05-18T05:41:43.551Z,10.72
2023-05-18T05:43:43.868Z,10.82
2023-05-18T05:45:44.174Z,10.93
2023-05-18T05:47:44.469Z,11.02
2023-05-18T05:49:44.851Z,11.12
2023-05-18T05:51:45.137Z,11.23
2023-05-18T05:53:45.450Z,11.30
2023-05-18T05:55:45.839Z,11.37
2023-05-18T05:57:46.238Z,11.47
2023-05-18T05:59:46.545Z,11.51
2023-05-18T06:01:46.877Z,11.59
2023-05-18T06:03:47.196Z,11.62
2023-05-18T06:05:47.419Z,11.65
2023-05-18T06:07:47.814Z,11.68
2023-05-18T06:09:48.159Z,11.73
2023-05-18T06:11:48.636Z,11.78
2023-05-18T06:13:49.080Z,11.83
2023-05-18T06:15:49.366Z,11.86
2023-05-18T06:17:49.810Z,11.86
2023-05-18T06:19:50.155Z,11.91
2023-05-18T06:21:50.443Z,11.95
2023-05-18T06:23:50.737Z,12.00
2023-05-18T06:25:51.104Z,12.04
2023-05-18T06:27:51.324Z,12.09
2023-05-18T06:29:51.663Z,12.10
2023-05-18T06:31:52.017Z,12.21
2023-05-18T06:33:52.282Z,12.28
2023-05-18T06:35:52.607Z,12.32
2023-05-18T06:37:52.913Z,12.39
2023-05-18T06:39:53.171Z,12.40
2023-05-18T06:41:53.511Z,12.46
2023-05-18T06:43:53.766Z,12.46
2023-05-18T06:45:54.108Z,12.54
2023-05-18T06:47:54.516Z,12.60
2023-05-18T06:49:54.825Z,12.61
2023-05-18T06:51:55.111Z,12.62
2023-05-18T06:53:55.409Z,12.68
2023-05-18T06:55:55.703Z,12.73
2023-05-18T06:57:56.012Z,12.82
2023-05-18T06:59:56.259Z,12.86
2023-05-18T07:01:56.687Z,12.93
2023-05-18T07:03:57.053Z,12.86
2023-05-18T07:05:57.415Z,12.90
2023-05-18T07:07:57.780Z,12.94
2023-05-18T07:09:58.056Z,12.94
2023-05-18T07:11:58.396Z,12.98
2023-05-18T07:13:58.735Z,13.11
2023-05-18T07:15:59.091Z,13.16
2023-05-18T07:17:59.455Z,13.19
2023-05-18T07:19:59.753Z,13.22
2023-05-18T07:22:00.128Z,13.25
2023-05-18T07:24:00.420Z,13.30
2023-05-18T07:26:00.888Z,13.46
2023-05-18T07:28:01.180Z,13.52
2023-05-18T07:30:01.567Z,13.53
2023-05-18T07:32:01.983Z,13.49
2023-05-18T07:34:02.359Z,13.52
2023-05-18T07:36:02.678Z,13.57
2023-05-18T07:38:02.993Z,13.62
2023-05-18T07:40:03.380Z,13.60
2023-05-18T07:42:03.681Z,13.63
2023-05-18T07:44:04.130Z,13.65
2023-05-18T07:46:04.388Z,13.77
2023-05-18T07:48:04.731Z,13.85
2023-05-18T07:50:05.402Z,13.83
2023-05-18T07:52:05.682Z,13.87
2023-05-18T07:54:06.013Z,13.92
2023-05-18T07:56:06.301Z,14.04
2023-05-18T07:58:06.737Z,14.07
2023-05-18T08:00:07.005Z,14.12
2023-05-18T08:02:07.335Z,14.08
2023-05-18T08:04:07.794Z,14.11
2023-05-18T08:06:08.278Z,14.25
2023-05-18T08:08:08.562Z,14.32
2023-05-18T08:10:08.874Z,14.37
2023-05-18T08:12:09.205Z,14.44
2023-05-18T08:14:14.363Z,14.54
2023-05-18T08:16:14.688Z,14.60
2023-05-18T08:18:15.128Z,14.66
2023-05-18T08:20:15.456Z,14.73
2023-05-18T08:22:15.751Z,14.84
2023-05-18T08:24:16.061Z,14.81
2023-05-18T08:26:16.349Z,14.84
2023-05-18T08:28:16.606Z,14.91
2023-05-18T08:30:17.231Z,14.94
2023-05-18T08:32:17.563Z,14.94
2023-05-18T08:34:17.941Z,15.00
2023-05-18T08:36:18.193Z,15.17
2023-05-18T08:38:18.581Z,15.27
2023-05-18T08:40:18.881Z,15.37
2023-05-18T08:42:19.163Z,15.47
2023-05-18T08:44:19.460Z,15.54
2023-05-18T08:46:19.777Z,15.58
2023-05-18T08:48:20.168Z,15.61
2023-05-18T08:50:22.101Z,15.61
2023-05-18T08:52:24.484Z,15.65
2023-05-18T08:54:24.833Z,15.77
2023-05-18T08:56:25.104Z,16.09
2023-05-18T08:58:25.400Z,16.36
2023-05-18T09:00:25.738Z,16.47
2023-05-18T09:02:26.128Z,16.57
2023-05-18T09:04:26.513Z,16.57
2023-05-18T09:06:26.836Z,16.68
2023-05-18T09:08:27.115Z,16.72
2023-05-18T09:10:27.518Z,16.81
2023-05-18T09:12:27.818Z,16.76
2023-05-18T09:14:28.181Z,16.86
2023-05-18T09:16:28.491Z,16.94
2023-05-18T09:18:28.866Z,17.01
2023-05-18T09:20:29.151Z,16.96
2023-05-18T09:22:29.467Z,16.99
2023-05-18T09:24:29.740Z,17.19
2023-05-18T09:26:30.005Z,17.23
2023-05-18T09:28:30.328Z,17.22
2023-05-18T09:30:30.657Z,17.26
2023-05-18T09:32:30.994Z,17.39
2023-05-18T09:34:31.308Z,17.48
2023-05-18T09:36:31.549Z,17.60
2023-05-18T09:38:31.869Z,17.70
2023-05-18T09:40:32.174Z,17.57
2023-05-18T09:42:32.414Z,17.51
2023-05-18T09:44:32.824Z,17.71
2023-05-18T09:46:33.169Z,17.87
2023-05-18T09:48:33.438Z,18.26
2023-05-18T09:50:33.787Z,18.43
2023-05-18T09:52:34.054Z,18.50
2023-05-18T09:54:34.442Z,18.50
2023-05-18T09:56:34.667Z,18.41
2023-05-18T09:58:35.070Z,18.53
2023-05-18T10:00:35.372Z,18.47
2023-05-18T10:02:35.691Z,18.60
2023-05-18T10:04:36.066Z,18.63
2023-05-18T10:06:36.350Z,18.75
2023-05-18T10:08:36.657Z,18.78
2023-05-18T10:10:37.024Z,18.88
2023-05-18T10:12:37.353Z,18.98
2023-05-18T10:14:37.659Z,18.83
2023-05-18T10:16:37.975Z,18.78
2023-05-18T10:18:38.374Z,18.66
2023-05-18T10:20:38.673Z,18.77
2023-05-18T10:22:38.988Z,18.84
2023-05-18T10:24:39.340Z,18.70
2023-05-18T10:26:39.698Z,18.65
2023-05-18T10:28:39.973Z,18.77
2023-05-18T10:30:40.306Z,18.15
2023-05-18T10:32:40.661Z,17.86
2023-05-18T10:34:40.954Z,17.80
2023-05-18T10:36:41.250Z,17.92
2023-05-18T10:38:41.560Z,17.86
2023-05-18T10:40:41.889Z,17.95
2023-05-18T10:42:42.243Z,18.10
2023-05-18T10:44:42.558Z,18.22
2023-05-18T10:46:42.900Z,18.38
2023-05-18T10:48:43.240Z,18.73
2023-05-18T10:50:43.588Z,18.93
2023-05-18T10:52:43.914Z,18.99
2023-05-18T10:54:44.232Z,18.89
2023-05-18T10:56:44.583Z,18.95
2023-05-18T10:58:44.874Z,18.95
2023-05-18T11:00:45.153Z,19.08
2023-05-18T11:02:45.476Z,19.08
2023-05-18T11:04:45.797Z,19.12
2023-05-18T11:06:47.182Z,19.27
2023-05-18T11:08:47.498Z,19.51
2023-05-18T11:10:47.831Z,19.71
2023-05-18T11:12:48.147Z,19.66
2023-05-18T11:14:48.473Z,19.24
2023-05-18T11:16:48.980Z,18.70
2023-05-18T11:18:49.481Z,18.50
2023-05-18T11:20:49.947Z,18.59
2023-05-18T11:22:50.255Z,18.90
2023-05-18T11:24:50.530Z,19.11
2023-05-18T11:26:50.885Z,19.36
2023-05-18T11:28:51.215Z,19.63
2023-05-18T11:30:51.560Z,19.51
2023-05-18T11:32:51.941Z,19.34
2023-05-18T11:34:52.287Z,18.98
2023-05-18T11:36:52.590Z,19.09
2023-05-18T11:38:53.002Z,19.37
2023-05-18T11:40:53.272Z,19.54
2023-05-18T11:42:53.594Z,19.51
2023-05-18T11:44:53.901Z,19.48
2023-05-18T11:46:54.355Z,19.63
2023-05-18T11:48:54.647Z,19.71
2023-05-18T11:50:54.970Z,19.73
2023-05-18T11:52:55.261Z,19.76
2023-05-18T11:54:55.578Z,19.86
2023-05-18T11:56:55.878Z,20.04
2023-05-18T11:58:56.129Z,20.14
2023-05-18T12:00:56.472Z,20.03
2023-05-18T12:02:57.045Z,19.56
2023-05-18T12:04:57.470Z,19.63
2023-05-18T12:06:57.788Z,19.88
2023-05-18T12:08:58.255Z,20.16
2023-05-18T12:10:58.703Z,20.47
2023-05-18T12:12:59.014Z,20.37
2023-05-18T12:14:59.260Z,20.21
2023-05-18T12:16:59.710Z,20.21
2023-05-18T12:19:00.018Z,20.34
2023-05-18T12:21:00.343Z,20.21
2023-05-18T12:23:00.629Z,20.11
2023-05-18T12:25:00.874Z,20.22
2023-05-18T12:27:01.183Z,20.21
2023-05-18T12:29:01.481Z,20.26
2023-05-18T12:31:01.820Z,20.31
2023-05-18T12:33:02.174Z,20.44
2023-05-18T12:35:02.513Z,20.37
2023-05-18T12:37:02.791Z,20.51
2023-05-18T12:39:03.254Z,20.93
2023-05-18T12:41:03.553Z,20.88
2023-05-18T12:43:03.846Z,21.20
2023-05-18T12:45:06.339Z,20.96
2023-05-18T12:47:07.412Z,20.74
2023-05-18T12:49:07.756Z,20.22
2023-05-18T12:51:08.220Z,20.22
2023-05-18T12:53:08.503Z,20.21
2023-05-18T12:55:08.802Z,20.36
2023-05-18T12:57:09.142Z,20.55
2023-05-18T12:59:09.482Z,20.63
2023-05-18T13:01:09.934Z,20.67
2023-05-18T13:03:14.495Z,20.92
2023-05-18T13:05:15.239Z,21.30
2023-05-18T13:07:15.639Z,21.36
2023-05-18T13:09:15.885Z,21.21
2023-05-18T13:11:16.241Z,20.99
2023-05-18T13:13:16.471Z,21.17
2023-05-18T13:15:17.057Z,21.33
2023-05-18T13:17:17.371Z,21.33
2023-05-18T13:19:17.761Z,21.43
2023-05-18T13:21:18.109Z,21.37
2023-05-18T13:23:18.419Z,21.45
2023-05-18T13:25:18.766Z,21.33
2023-05-18T13:27:19.064Z,21.33
2023-05-18T13:29:19.352Z,21.30
2023-05-18T13:31:19.639Z,21.07
2023-05-18T13:33:20.040Z,21.07
2023-05-18T13:35:20.283Z,20.77
2023-05-18T13:37:20.621Z,20.47
2023-05-18T13:39:20.913Z,20.59
2023-05-18T13:41:21.325Z,20.78
2023-05-18T13:43:21.605Z,21.06
2023-05-18T13:45:21.907Z,21.36
2023-05-18T13:47:22.187Z,21.39
2023-05-18T13:49:22.596Z,21.51
2023-05-18T13:51:22.887Z,21.22
2023-05-18T13:53:23.253Z,20.88
2023-05-18T13:55:23.575Z,20.62
2023-05-18T13:57:23.849Z,20.92
2023-05-18T13:59:24.154Z,21.20
2023-05-18T14:01:24.528Z,21.48
2023-05-18T14:03:25.033Z,21.24
2023-05-18T14:05:25.371Z,21.33
2023-05-18T14:07:25.652Z,21.32
2023-05-18T14:09:26.042Z,21.29
2023-05-18T14:11:26.311Z,21.35
2023-05-18T14:13:26.718Z,21.70
2023-05-18T14:15:26.952Z,22.14
2023-05-18T14:17:27.293Z,22.15
2023-05-18T14:19:27.772Z,21.89
2023-05-18T14:21:28.106Z,21.42
2023-05-18T14:23:28.419Z,21.35
2023-05-18T14:25:28.781Z,21.45
2023-05-18T14:27:29.075Z,21.60
2023-05-18T14:29:29.430Z,21.98
2023-05-18T14:31:29.734Z,22.23
2023-05-18T14:33:29.998Z,22.26
2023-05-18T14:35:30.392Z,22.17
2023-05-18T14:37:30.763Z,22.36
2023-05-18T14:39:31.083Z,22.75
2023-05-18T14:41:31.360Z,22.63
2023-05-18T14:43:31.701Z,22.28
2023-05-18T14:45:32.019Z,22.32
2023-05-18T14:47:32.327Z,22.13
2023-05-18T14:49:32.612Z,22.32
2023-05-18T14:51:32.878Z,22.54
2023-05-18T14:53:33.194Z,22.60
2023-05-18T14:55:33.831Z,22.41
2023-05-18T14:57:34.129Z,22.22
2023-05-18T14:59:34.486Z,22.22
2023-05-18T15:01:34.764Z,22.33
2023-05-18T15:03:35.129Z,22.47
2023-05-18T15:05:35.545Z,22.11
2023-05-18T15:07:35.789Z,22.23
2023-05-18T15:09:36.287Z,22.48
2023-05-18T15:11:36.651Z,22.80
2023-05-18T15:13:36.947Z,22.81
2023-05-18T15:15:37.392Z,22.94
2023-05-18T15:17:37.801Z,22.99
2023-05-18T15:19:38.194Z,22.66
2023-05-18T15:21:38.512Z,22.53
2023-05-18T15:23:38.825Z,22.22
2023-05-18T15:25:39.723Z,21.79
2023-05-18T15:27:40.091Z,21.58
2023-05-18T15:29:40.724Z,21.42
2023-05-18T15:31:41.053Z,21.15
2023-05-18T15:33:41.483Z,21.00
2023-05-18T15:35:41.780Z,21.15
2023-05-18T15:37:42.101Z,21.48
2023-05-18T15:39:42.433Z,21.89
2023-05-18T15:41:42.737Z,21.96
2023-05-18T15:43:43.029Z,21.95
2023-05-18T15:45:43.522Z,22.11
2023-05-18T15:47:43.880Z,22.32
2023-05-18T15:49:44.178Z,22.81
2023-05-18T15:51:44.449Z,23.00
2023-05-18T15:53:44.760Z,22.96
2023-05-18T15:55:45.103Z,23.40
2023-05-18T15:57:45.377Z,23.81
2023-05-18T15:59:45.752Z,23.56
2023-05-18T16:01:46.100Z,23.73
2023-05-18T16:03:46.605Z,24.50
2023-05-18T16:05:46.937Z,24.03
2023-05-18T16:07:47.223Z,24.18
2023-05-18T16:09:47.548Z,24.68
2023-05-18T16:11:47.810Z,25.51
2023-05-18T16:13:48.164Z,26.55
2023-05-18T16:15:48.462Z,26.45
2023-05-18T16:17:48.813Z,25.69
2023-05-18T16:19:49.102Z,25.53
2023-05-18T16:21:49.378Z,25.32
2023-05-18T16:23:49.770Z,25.69
2023-05-18T16:25:50.041Z,26.28
2023-05-18T16:27:50.340Z,25.78
2023-05-18T16:29:50.733Z,23.58
2023-05-18T16:31:51.098Z,22.00
2023-05-18T16:33:51.590Z,21.60
2023-05-18T16:35:51.848Z,23.40
2023-05-18T16:37:52.201Z,24.51
2023-05-18T16:39:52.442Z,24.54
2023-05-18T16:41:52.867Z,25.35
2023-05-18T16:43:58.022Z,25.06
2023-05-18T16:45:58.318Z,25.55
2023-05-18T16:47:58.650Z,25.84
2023-05-18T16:49:58.909Z,26.22
2023-05-18T16:51:59.233Z,26.05
2023-05-18T16:53:59.544Z,25.98
2023-05-18T16:55:59.862Z,25.90
2023-05-18T16:58:00.155Z,25.96
2023-05-18T17:00:00.451Z,25.03
2023-05-18T17:02:00.772Z,23.63
2023-05-18T17:04:01.111Z,22.26
2023-05-18T17:06:01.862Z,21.36
2023-05-18T17:08:02.259Z,20.97
2023-05-18T17:10:02.574Z,20.65
2023-05-18T17:12:02.870Z,20.39
2023-05-18T17:14:03.160Z,20.29
2023-05-18T17:16:03.510Z,20.06
2023-05-18T17:18:03.816Z,20.06
2023-05-18T17:20:04.131Z,20.00
2023-05-18T17:22:04.678Z,19.77
2023-05-18T17:24:08.184Z,19.70
2023-05-18T17:26:08.420Z,19.56
2023-05-18T17:28:08.719Z,19.67
2023-05-18T17:30:09.078Z,19.77
2023-05-18T17:32:09.350Z,19.64
2023-05-18T17:34:09.653Z,19.47
2023-05-18T17:36:10.959Z,19.45
2023-05-18T17:38:11.510Z,19.37
2023-05-18T17:40:11.957Z,19.21
2023-05-18T17:42:13.263Z,19.04
2023-05-18T17:44:13.503Z,18.99
2023-05-18T17:46:13.877Z,18.83
2023-05-18T17:48:14.278Z,18.88
2023-05-18T17:50:14.642Z,18.81
2023-05-18T17:52:14.985Z,18.80
2023-05-18T17:54:15.289Z,18.74
2023-05-18T17:56:15.637Z,18.63
2023-05-18T17:58:16.062Z,18.75
2023-05-18T18:00:16.409Z,18.63
2023-05-18T18:02:16.748Z,18.62
2023-05-18T18:04:17.135Z,18.45
2023-05-18T18:06:17.519Z,18.35
2023-05-18T18:08:17.995Z,18.25
2023-05-18T18:10:18.318Z,18.15
2023-05-18T18:12:18.590Z,18.05
2023-05-18T18:14:19.016Z,17.95
2023-05-18T18:16:19.417Z,17.85
2023-05-18T18:18:19.695Z,17.72
2023-05-18T18:20:20.123Z,17.67
2023-05-18T18:22:20.404Z,17.59
2023-05-18T18:24:25.579Z,17.51
2023-05-18T18:26:25.896Z,17.44
2023-05-18T18:28:26.257Z,17.34
2023-05-18T18:30:26.581Z,17.30
2023-05-18T18:32:26.944Z,17.23
2023-05-18T18:34:27.226Z,17.12
2023-05-18T18:36:27.553Z,17.05
2023-05-18T18:38:27.851Z,16.96
2023-05-18T18:41:10.768Z,16.86
2023-05-18T18:43:11.068Z,16.72
2023-05-18T18:45:11.475Z,16.64
2023-05-18T18:47:11.822Z,16.57
2023-05-18T18:49:12.156Z,16.43
2023-05-18T18:51:12.569Z,16.41
2023-05-18T18:53:12.828Z,16.32
2023-05-18T18:55:13.218Z,16.29
2023-05-18T18:57:13.500Z,16.17
2023-05-18T18:59:13.766Z,16.10
2023-05-18T19:01:14.212Z,16.01
2023-05-18T19:03:14.718Z,15.95
2023-05-18T19:05:19.750Z,15.83
2023-05-18T19:07:20.035Z,15.77
2023-05-18T19:09:20.352Z,15.67
2023-05-18T19:11:20.690Z,15.58
2023-05-18T19:13:21.000Z,15.49
2023-05-18T19:15:21.363Z,15.40
2023-05-18T19:17:21.906Z,15.36
2023-05-18T19:19:22.263Z,15.27
2023-05-18T19:21:22.670Z,15.18
2023-05-18T19:23:23.007Z,15.09
2023-05-18T19:25:23.412Z,14.99
2023-05-18T19:27:23.738Z,14.92
2023-05-18T19:29:24.014Z,14.84
2023-05-18T19:31:24.886Z,14.79
2023-05-18T19:33:25.391Z,14.77
2023-05-18T19:35:25.651Z,14.72
2023-05-18T19:37:26.661Z,14.72
2023-05-18T19:39:27.264Z,14.73
2023-05-18T19:41:28.068Z,14.70
2023-05-18T19:43:28.778Z,14.65
2023-05-18T19:45:29.262Z,14.59
2023-05-18T19:47:29.922Z,14.48
2023-05-18T19:49:30.366Z,14.36
2023-05-18T19:51:30.597Z,14.29
2023-05-18T19:53:30.998Z,14.18
2023-05-18T19:55:31.519Z,14.12
2023-05-18T19:57:32.005Z,14.04
2023-05-18T19:59:32.377Z,13.95
2023-05-18T20:01:32.791Z,13.90
2023-05-18T20:03:33.356Z,13.85
2023-05-18T20:05:34.434Z,13.79
2023-05-18T20:07:34.724Z,13.72
2023-05-18T20:09:35.083Z,13.68
2023-05-18T20:11:35.643Z,13.60
2023-05-18T20:13:35.891Z,13.54
2023-05-18T20:15:36.198Z,13.52
2023-05-18T20:17:36.497Z,13.49
2023-05-18T20:19:36.804Z,13.41
2023-05-18T20:21:37.200Z,13.39
2023-05-18T20:23:37.483Z,13.39
2023-05-18T20:25:37.947Z,13.33
2023-05-18T20:27:38.276Z,13.27
2023-05-18T20:29:38.556Z,13.20
2023-05-18T20:31:38.945Z,13.12
2023-05-18T20:33:39.300Z,13.08
2023-05-18T20:35:39.565Z,13.08
2023-05-18T20:37:39.939Z,13.03
2023-05-18T20:39:40.271Z,12.98
2023-05-18T20:41:40.793Z,12.94
2023-05-18T20:43:41.606Z,12.87
2023-05-18T20:45:42.858Z,12.80
2023-05-18T20:47:43.527Z,12.70
2023-05-18T20:49:45.166Z,12.64
2023-05-18T20:51:46.205Z,12.61
2023-05-18T20:53:46.701Z,12.57
2023-05-18T20:55:48.320Z,12.53
2023-05-18T20:57:49.811Z,12.50
2023-05-18T20:59:50.407Z,12.49
2023-05-18T21:01:52.151Z,12.45
2023-05-18T21:03:53.922Z,12.43
2023-05-18T21:05:54.508Z,12.40
2023-05-18T21:07:55.392Z,12.32
2023-05-18T21:09:56.937Z,12.35
2023-05-18T21:11:57.317Z,12.28
2023-05-18T21:13:57.588Z,12.31
2023-05-18T21:15:57.989Z,12.36
2023-05-18T21:17:58.345Z,12.29
2023-05-18T21:19:58.902Z,12.32
2023-05-18T21:21:59.336Z,12.45
2023-05-18T21:23:59.716Z,12.55
2023-05-18T21:27:07.542Z,12.78
2023-05-18T21:29:08.852Z,12.97
2023-05-18T21:32:11.178Z,13.16
2023-05-18T21:34:11.859Z,13.27
2023-05-18T21:37:37.318Z,13.30
2023-05-18T21:40:26.077Z,13.37
2023-05-18T21:42:26.839Z,13.28
2023-05-18T21:44:27.431Z,13.25
2023-05-18T21:46:28.059Z,13.25
2023-05-18T21:48:28.426Z,13.28
2023-05-18T21:50:28.961Z,13.31
2023-05-18T21:52:29.840Z,13.33
2023-05-18T21:54:32.680Z,13.38
2023-05-18T21:57:20.508Z,13.28
2023-05-18T22:00:06.719Z,13.27
2023-05-18T22:03:00.666Z,13.25
2023-05-18T22:05:03.047Z,13.23
2023-05-18T22:07:03.665Z,13.19
2023-05-18T22:10:08.855Z,13.22
2023-05-18T22:12:56.709Z,13.13
2023-05-18T22:14:57.251Z,13.04
2023-05-18T22:17:45.230Z,12.97
2023-05-18T22:22:00.636Z,12.94
2023-05-18T22:24:57.010Z,12.90
2023-05-18T22:26:58.687Z,12.86
2023-05-18T22:28:59.026Z,12.87
2023-05-18T22:30:59.353Z,13.00
2023-05-18T22:32:59.695Z,13.05
2023-05-18T22:35:00.007Z,13.05
2023-05-18T22:37:00.332Z,13.01
2023-05-18T22:39:00.655Z,12.94
2023-05-18T22:41:01.088Z,12.93
2023-05-18T22:43:01.682Z,12.83
2023-05-18T22:45:02.007Z,12.83
2023-05-18T22:48:06.156Z,12.76
2023-05-18T22:50:07.205Z,12.76
2023-05-18T22:52:55.069Z,12.79
2023-05-18T22:55:52.420Z,12.80
2023-05-18T22:57:52.911Z,12.75
2023-05-18T22:59:55.231Z,12.76
2023-05-18T23:01:56.245Z,12.75
2023-05-18T23:03:56.793Z,12.75
2023-05-18T23:05:57.305Z,12.70
2023-05-18T23:07:57.849Z,12.73
2023-05-18T23:09:58.868Z,12.65
2023-05-18T23:11:59.394Z,12.67
2023-05-18T23:14:43.027Z,12.58
2023-05-18T23:16:43.644Z,12.55
2023-05-18T23:18:44.539Z,12.60
2023-05-18T23:20:45.001Z,12.58
2023-05-18T23:22:45.420Z,12.50
2023-05-18T23:24:45.705Z,12.47
2023-05-18T23:26:46.008Z,12.42
2023-05-18T23:28:46.381Z,12.32
2023-05-18T23:30:46.738Z,12.27
2023-05-18T23:32:47.190Z,12.21
2023-05-18T23:34:47.569Z,12.17
2023-05-18T23:36:47.878Z,12.20
2023-05-18T23:38:48.205Z,12.21
2023-05-18T23:40:48.624Z,12.15
2023-05-18T23:42:48.915Z,12.10
2023-05-18T23:44:49.283Z,12.07
2023-05-18T23:46:49.583Z,11.99
2023-05-18T23:48:49.869Z,11.88
2023-05-18T23:50:50.229Z,11.84
2023-05-18T23:52:50.559Z,11.81
2023-05-18T23:55:35.243Z,11.81
2023-05-18T23:58:26.113Z,11.81
